Time,TemperatureF,DewpointF,PressureIn,WindDirection,WindDirectionDegrees,WindSpeedMPH,WindSpeedGustMPH,Humidity,HourlyPrecipIn,Conditions,Clouds,dailyrainin,SoftwareType,DateUTC
2013-03-27 00:00:00,47.5,10.0,29.56,West,266,8.0,13.0,22,0.00,,,0.00,weatherlink.com 1.10,2013-03-27 07:00:00,
2013-03-27 00:15:00,47.4,11.0,29.56,SE,137,5.0,15.0,23,0.00,,,0.00,weatherlink.com 1.10,2013-03-27 07:15:00,
2013-03-27 00:30:00,47.2,12.0,29.56,West,264,6.0,11.0,24,0.00,,,0.00,weatherlink.com 1.10,2013-03-27 07:30:00,
2013-03-27 00:45:00,46.6,11.0,29.55,NNW,328,5.0,9.0,24,0.00,,,0.00,weatherlink.com 1.10,2013-03-27 07:45:00,
2013-03-27 01:00:00,46.1,13.0,29.55,WSW,250,6.0,10.0,26,0.00,,,0.00,weatherlink.com 1.10,2013-03-27 08:00:00,
2013-03-27 01:15:00,45.7,12.0,29.54,SW,226,8.0,13.0,26,0.00,,,0.00,weatherlink.com 1.10,2013-03-27 08:15:00,
2013-03-27 01:30:00,45.7,13.0,29.54,SW,215,5.0,13.0,27,0.00,,,0.00,weatherlink.com 1.10,2013-03-27 08:30:00,
2013-03-27 01:45:00,46.1,14.0,29.53,SW,220,11.0,16.0,27,0.00,,,0.00,weatherlink.com 1.10,2013-03-27 08:45:00,
2013-03-27 02:01:00,46.3,13.0,29.52,West,267,8.0,21.0,26,0.00,,,0.00,weatherlink.com 1.10,2013-03-27 09:01:00,
2013-03-27 02:16:00,46.6,12.0,29.52,South,188,6.0,19.0,25,0.00,,,0.00,weatherlink.com 1.10,2013-03-27 09:16:00,
2013-03-27 02:31:00,46.3,13.0,29.52,WSW,255,12.0,13.0,26,0.00,,,0.00,weatherlink.com 1.10,2013-03-27 09:31:00,
2013-03-27 02:46:00,46.3,13.0,29.52,WSW,245,8.0,18.0,26,0.00,,,0.00,weatherlink.com 1.10,2013-03-27 09:46:00,
2013-03-27 03:01:00,46.4,12.0,29.51,WSW,250,10.0,14.0,25,0.00,,,0.00,weatherlink.com 1.10,2013-03-27 10:01:00,
2013-03-27 03:16:00,46.5,13.0,29.51,SSW,212,10.0,17.0,26,0.00,,,0.00,weatherlink.com 1.10,2013-03-27 10:16:00,
2013-03-27 04:16:00,45.9,13.0,29.51,SW,236,5.0,16.0,26,0.00,,,0.00,weatherlink.com 1.10,2013-03-27 11:16:00,
2013-03-27 05:31:00,46.1,13.0,29.52,SE,139,3.0,17.0,26,0.00,,,0.00,weatherlink.com 1.10,2013-03-27 12:31:00,
2013-03-27 05:46:00,46.1,12.0,29.52,West,264,10.0,18.0,25,0.00,,,0.00,weatherlink.com 1.10,2013-03-27 12:46:00,
2013-03-27 06:01:00,45.9,12.0,29.53,West,277,7.0,15.0,25,0.00,,,0.00,weatherlink.com 1.10,2013-03-27 13:01:00,
2013-03-27 06:16:00,45.5,11.0,29.53,West,260,10.0,15.0,25,0.00,,,0.00,weatherlink.com 1.10,2013-03-27 13:16:00,
2013-03-27 06:31:00,45.6,12.0,29.54,WSW,245,7.0,15.0,25,0.00,,,0.00,weatherlink.com 1.10,2013-03-27 13:31:00,
2013-03-27 06:46:00,45.4,11.0,29.54,SSW,203,5.0,10.0,25,0.00,,,0.00,weatherlink.com 1.10,2013-03-27 13:46:00,
2013-03-27 07:01:00,45.8,12.0,29.55,South,190,4.0,14.0,25,0.00,,,0.00,weatherlink.com 1.10,2013-03-27 14:01:00,
2013-03-27 07:16:00,46.1,12.0,29.56,SW,215,11.0,17.0,25,0.00,,,0.00,weatherlink.com 1.10,2013-03-27 14:16:00,
2013-03-27 07:31:00,46.1,12.0,29.57,WSW,248,7.0,11.0,25,0.00,,,0.00,weatherlink.com 1.10,2013-03-27 14:31:00,
2013-03-27 07:46:00,46.0,13.0,29.57,WNW,283,5.0,16.0,26,0.00,,,0.00,weatherlink.com 1.10,2013-03-27 14:46:00,
2013-03-27 08:16:00,45.7,15.0,29.58,SSE,160,7.0,14.0,29,0.00,,,0.00,weatherlink.com 1.10,2013-03-27 15:16:00,
2013-03-27 08:31:00,45.9,14.0,29.58,SW,229,11.0,17.0,28,0.00,,,0.00,weatherlink.com 1.10,2013-03-27 15:31:00,
2013-03-27 08:46:00,46.1,14.0,29.59,WSW,239,7.0,13.0,28,0.00,,,0.00,weatherlink.com 1.10,2013-03-27 15:46:00,
2013-03-27 09:01:00,46.4,15.0,29.59,WSW,255,6.0,17.0,28,0.00,,,0.00,weatherlink.com 1.10,2013-03-27 16:01:00,
2013-03-27 09:31:00,47.4,15.0,29.60,SSW,212,12.0,19.0,27,0.00,,,0.00,weatherlink.com 1.10,2013-03-27 16:31:00,
2013-03-27 09:46:00,48.4,15.0,29.60,SW,219,7.0,16.0,26,0.00,,,0.00,weatherlink.com 1.10,2013-03-27 16:46:00,
2013-03-27 10:16:00,49.7,15.0,29.61,SW,229,12.0,17.0,25,0.00,,,0.00,weatherlink.com 1.10,2013-03-27 17:16:00,
2013-03-27 10:31:00,50.3,16.0,29.61,SE,127,6.0,14.0,25,0.00,,,0.00,weatherlink.com 1.10,2013-03-27 17:31:00,
2013-03-27 11:02:00,51.4,15.0,29.62,NE,43,4.0,13.0,23,0.00,,,0.00,weatherlink.com 1.10,2013-03-27 18:02:00,
2013-03-27 11:16:00,51.9,14.0,29.62,SSE,155,14.0,15.0,22,0.00,,,0.00,weatherlink.com 1.10,2013-03-27 18:16:00,
2013-03-27 11:31:00,52.2,15.0,29.61,SSW,212,4.0,17.0,23,0.00,,,0.00,weatherlink.com 1.10,2013-03-27 18:31:00,
2013-03-27 11:46:00,53.5,13.0,29.62,SSE,153,3.0,15.0,20,0.00,,,0.00,weatherlink.com 1.10,2013-03-27 18:46:00,
2013-03-27 12:01:00,52.8,16.0,29.61,SSE,166,6.0,12.0,23,0.00,,,0.00,weatherlink.com 1.10,2013-03-27 19:01:00,
2013-03-27 12:16:00,53.3,16.0,29.60,South,176,9.0,15.0,23,0.00,,,0.00,weatherlink.com 1.10,2013-03-27 19:16:00,
2013-03-27 12:31:00,54.0,11.0,29.60,WSW,253,11.0,17.0,18,0.00,,,0.00,weatherlink.com 1.10,2013-03-27 19:31:00,
2013-03-27 12:46:00,53.6,14.0,29.60,SW,226,9.0,13.0,21,0.00,,,0.00,weatherlink.com 1.10,2013-03-27 19:46:00,
2013-03-27 13:17:00,56.0,13.0,29.59,NNE,25,8.0,20.0,18,0.00,,,0.00,weatherlink.com 1.10,2013-03-27 20:17:00,
2013-03-27 13:32:00,54.8,13.0,29.59,WSW,256,10.0,17.0,19,0.00,,,0.00,weatherlink.com 1.10,2013-03-27 20:32:00,
2013-03-27 13:47:00,56.4,16.0,29.59,SW,226,10.0,21.0,20,0.00,,,0.00,weatherlink.com 1.10,2013-03-27 20:47:00,
2013-03-27 14:02:00,56.2,15.0,29.59,SW,226,16.0,17.0,20,0.00,,,0.00,weatherlink.com 1.10,2013-03-27 21:02:00,
2013-03-27 14:17:00,57.2,17.0,29.58,South,183,10.0,16.0,21,0.00,,,0.00,weatherlink.com 1.10,2013-03-27 21:17:00,
2013-03-27 14:32:00,56.2,15.0,29.58,SW,235,11.0,22.0,20,0.00,,,0.00,weatherlink.com 1.10,2013-03-27 21:32:00,
2013-03-27 14:47:00,56.7,15.0,29.58,SW,232,12.0,19.0,19,0.00,,,0.00,weatherlink.com 1.10,2013-03-27 21:47:00,
2013-03-27 15:02:00,56.8,15.0,29.58,SSE,167,12.0,21.0,19,0.00,,,0.00,weatherlink.com 1.10,2013-03-27 22:02:00,
2013-03-27 15:17:00,56.2,15.0,29.57,WNW,302,6.0,21.0,20,0.00,,,0.00,weatherlink.com 1.10,2013-03-27 22:17:00,
2013-03-27 15:32:00,56.3,14.0,29.57,SSW,197,12.0,20.0,19,0.00,,,0.00,weatherlink.com 1.10,2013-03-27 22:32:00,
2013-03-27 15:47:00,56.0,13.0,29.57,SW,229,7.0,16.0,18,0.00,,,0.00,weatherlink.com 1.10,2013-03-27 22:47:00,
2013-03-27 16:02:00,55.4,15.0,29.57,WSW,239,8.0,18.0,20,0.00,,,0.00,weatherlink.com 1.10,2013-03-27 23:02:00,
2013-03-27 16:17:00,55.6,18.0,29.57,SW,235,7.0,14.0,23,0.00,,,0.00,weatherlink.com 1.10,2013-03-27 23:17:00,
2013-03-27 16:32:00,53.9,19.0,29.58,SW,225,8.0,18.0,25,0.00,,,0.00,weatherlink.com 1.10,2013-03-27 23:32:00,
2013-03-27 16:47:00,53.6,19.0,29.58,SW,236,11.0,17.0,26,0.00,,,0.00,weatherlink.com 1.10,2013-03-27 23:47:00,
2013-03-27 17:02:00,53.1,20.0,29.58,WSW,256,9.0,17.0,27,0.00,,,0.00,weatherlink.com 1.10,2013-03-28 00:02:00,
2013-03-27 17:17:00,53.0,20.0,29.58,SW,233,19.0,23.0,27,0.00,,,0.00,weatherlink.com 1.10,2013-03-28 00:17:00,
2013-03-27 17:32:00,53.1,20.0,29.58,West,259,9.0,17.0,27,0.00,,,0.00,weatherlink.com 1.10,2013-03-28 00:32:00,
2013-03-27 17:47:00,53.4,20.0,29.58,SE,137,9.0,16.0,27,0.00,,,0.00,weatherlink.com 1.10,2013-03-28 00:47:00,
2013-03-27 18:02:00,52.5,20.0,29.58,WSW,253,14.0,22.0,28,0.00,,,0.00,weatherlink.com 1.10,2013-03-28 01:02:00,
2013-03-27 18:17:00,51.7,20.0,29.58,SW,226,7.0,15.0,29,0.00,,,0.00,weatherlink.com 1.10,2013-03-28 01:17:00,
2013-03-27 18:32:00,51.0,16.0,29.59,WSW,238,9.0,21.0,25,0.00,,,0.00,weatherlink.com 1.10,2013-03-28 01:32:00,
2013-03-27 18:47:00,50.4,15.0,29.59,SW,229,15.0,21.0,24,0.00,,,0.00,weatherlink.com 1.10,2013-03-28 01:47:00,
2013-03-27 19:02:00,50.0,14.0,29.59,West,259,16.0,19.0,24,0.00,,,0.00,weatherlink.com 1.10,2013-03-28 02:02:00,
2013-03-27 19:17:00,49.7,13.0,29.59,West,270,14.0,18.0,23,0.00,,,0.00,weatherlink.com 1.10,2013-03-28 02:17:00,
2013-03-27 19:32:00,49.4,13.0,29.59,WSW,243,16.0,18.0,23,0.00,,,0.00,weatherlink.com 1.10,2013-03-28 02:32:00,
2013-03-27 19:47:00,49.3,12.0,29.60,WNW,302,6.0,19.0,22,0.00,,,0.00,weatherlink.com 1.10,2013-03-28 02:47:00,
2013-03-27 20:02:00,49.0,10.0,29.60,West,266,9.0,23.0,21,0.00,,,0.00,weatherlink.com 1.10,2013-03-28 03:02:00,
2013-03-27 20:17:00,48.7,10.0,29.60,SW,218,12.0,20.0,21,0.00,,,0.00,weatherlink.com 1.10,2013-03-28 03:17:00,
2013-03-27 20:32:00,48.6,10.0,29.60,NNE,30,6.0,24.0,21,0.00,,,0.00,weatherlink.com 1.10,2013-03-28 03:32:00,
2013-03-27 20:48:00,48.3,9.0,29.61,ENE,58,7.0,26.0,20,0.00,,,0.00,weatherlink.com 1.10,2013-03-28 03:48:00,
2013-03-27 21:03:00,48.1,9.0,29.62,NW,316,13.0,23.0,20,0.00,,,0.00,weatherlink.com 1.10,2013-03-28 04:03:00,
2013-03-27 21:18:00,47.9,10.0,29.62,West,278,5.0,20.0,21,0.00,,,0.00,weatherlink.com 1.10,2013-03-28 04:18:00,
2013-03-27 21:33:00,47.6,9.0,29.63,WSW,253,6.0,16.0,21,0.00,,,0.00,weatherlink.com 1.10,2013-03-28 04:33:00,
2013-03-27 21:48:00,47.5,10.0,29.63,WSW,257,13.0,19.0,22,0.00,,,0.00,weatherlink.com 1.10,2013-03-28 04:48:00,
2013-03-27 22:03:00,47.7,13.0,29.64,WSW,253,12.0,17.0,25,0.00,,,0.00,weatherlink.com 1.10,2013-03-28 05:03:00,
2013-03-27 22:18:00,47.9,15.0,29.64,SW,224,11.0,15.0,27,0.00,,,0.00,weatherlink.com 1.10,2013-03-28 05:18:00,
2013-03-27 22:33:00,48.2,18.0,29.64,WNW,284,8.0,17.0,30,0.00,,,0.00,weatherlink.com 1.10,2013-03-28 05:33:00,
2013-03-27 22:48:00,48.3,17.0,29.64,SW,225,10.0,18.0,29,0.00,,,0.00,weatherlink.com 1.10,2013-03-28 05:48:00,
2013-03-27 23:03:00,48.1,16.0,29.64,West,270,14.0,16.0,28,0.00,,,0.00,weatherlink.com 1.10,2013-03-28 06:03:00,
2013-03-27 23:18:00,47.8,16.0,29.64,WNW,302,13.0,20.0,28,0.00,,,0.00,weatherlink.com 1.10,2013-03-28 06:18:00,
2013-03-27 23:33:00,47.6,19.0,29.64,SSW,197,8.0,23.0,32,0.00,,,0.00,weatherlink.com 1.10,2013-03-28 06:33:00,
2013-03-27 23:48:00,47.4,20.0,29.64,SSW,200,6.0,19.0,34,0.00,,,0.00,weatherlink.com 1.10,2013-03-28 06:48:00,